sensor_id;sensor_type;location;lat;lon;timestamp;temperature;humidity
64226;DHT22;50545;56.064;26.178;2023-02-12T00:00:43;-3.10;99.90
64226;DHT22;50545;56.064;26.178;2023-02-12T00:03:10;-3.20;99.90
64226;DHT22;50545;56.064;26.178;2023-02-12T00:05:39;-3.20;99.90
64226;DHT22;50545;56.064;26.178;2023-02-12T00:08:08;-3.20;99.90
64226;DHT22;50545;56.064;26.178;2023-02-12T00:10:41;-3.20;99.90
64226;DHT22;50545;56.064;26.178;2023-02-12T00:13:09;-3.20;99.90
64226;DHT22;50545;56.064;26.178;2023-02-12T00:15:38;-3.10;99.90
64226;DHT22;50545;56.064;26.178;2023-02-12T00:18:06;-3.10;99.90
64226;DHT22;50545;56.064;26.178;2023-02-12T00:20:35;-3.20;99.90
64226;DHT22;50545;56.064;26.178;2023-02-12T00:23:04;-3.20;99.90
64226;DHT22;50545;56.064;26.178;2023-02-12T00:25:31;-3.20;99.90
64226;DHT22;50545;56.064;26.178;2023-02-12T00:27:59;-3.20;99.90
64226;DHT22;50545;56.064;26.178;2023-02-12T00:30:26;-3.20;99.90
64226;DHT22;50545;56.064;26.178;2023-02-12T00:32:53;-3.20;99.90
64226;DHT22;50545;56.064;26.178;2023-02-12T00:35:21;-3.20;99.90
64226;DHT22;50545;56.064;26.178;2023-02-12T00:37:48;-3.30;99.90
64226;DHT22;50545;56.064;26.178;2023-02-12T00:40:15;-3.30;99.90
64226;DHT22;50545;56.064;26.178;2023-02-12T00:42:42;-3.30;99.90
64226;DHT22;50545;56.064;26.178;2023-02-12T00:45:09;-3.30;99.90
64226;DHT22;50545;56.064;26.178;2023-02-12T00:47:37;-3.40;99.90
64226;DHT22;50545;56.064;26.178;2023-02-12T00:50:04;-3.40;99.90
64226;DHT22;50545;56.064;26.178;2023-02-12T00:52:32;-3.40;99.90
64226;DHT22;50545;56.064;26.178;2023-02-12T00:54:59;-3.40;99.90
64226;DHT22;50545;56.064;26.178;2023-02-12T00:57:26;-3.40;99.90
64226;DHT22;50545;56.064;26.178;2023-02-12T00:59:53;-3.40;99.90
64226;DHT22;50545;56.064;26.178;2023-02-12T01:02:21;-3.40;99.90
64226;DHT22;50545;56.064;26.178;2023-02-12T01:04:48;-3.40;99.90
64226;DHT22;50545;56.064;26.178;2023-02-12T01:07:15;-3.50;99.90
64226;DHT22;50545;56.064;26.178;2023-02-12T01:09:42;-3.50;99.90
64226;DHT22;50545;56.064;26.178;2023-02-12T01:12:09;-3.40;99.90
64226;DHT22;50545;56.064;26.178;2023-02-12T01:14:37;-3.50;99.90
64226;DHT22;50545;56.064;26.178;2023-02-12T01:17:07;-3.50;99.90
64226;DHT22;50545;56.064;26.178;2023-02-12T01:19:35;-3.50;99.90
64226;DHT22;50545;56.064;26.178;2023-02-12T01:22:02;-3.50;99.90
64226;DHT22;50545;56.064;26.178;2023-02-12T01:24:29;-3.40;99.90
64226;DHT22;50545;56.064;26.178;2023-02-12T01:26:57;-3.40;99.90
64226;DHT22;50545;56.064;26.178;2023-02-12T01:29:24;-3.50;99.90
64226;DHT22;50545;56.064;26.178;2023-02-12T01:31:51;-3.50;99.90
64226;DHT22;50545;56.064;26.178;2023-02-12T01:34:18;-3.50;99.90
64226;DHT22;50545;56.064;26.178;2023-02-12T01:36:46;-3.50;99.90
64226;DHT22;50545;56.064;26.178;2023-02-12T01:39:13;-3.50;99.90
64226;DHT22;50545;56.064;26.178;2023-02-12T01:41:43;-3.50;99.90
64226;DHT22;50545;56.064;26.178;2023-02-12T01:44:20;-3.50;99.90
64226;DHT22;50545;56.064;26.178;2023-02-12T01:46:53;-3.60;99.90
64226;DHT22;50545;56.064;26.178;2023-02-12T01:49:25;-3.60;99.90
64226;DHT22;50545;56.064;26.178;2023-02-12T01:51:59;-3.60;99.90
64226;DHT22;50545;56.064;26.178;2023-02-12T01:54:29;-3.60;99.90
64226;DHT22;50545;56.064;26.178;2023-02-12T01:56:59;-3.60;99.90
64226;DHT22;50545;56.064;26.178;2023-02-12T01:59:26;-3.70;99.90
64226;DHT22;50545;56.064;26.178;2023-02-12T02:01:54;-3.70;99.90
64226;DHT22;50545;56.064;26.178;2023-02-12T02:04:28;-3.70;99.90
64226;DHT22;50545;56.064;26.178;2023-02-12T02:07:01;-3.70;99.90
64226;DHT22;50545;56.064;26.178;2023-02-12T02:09:33;-3.70;99.90
64226;DHT22;50545;56.064;26.178;2023-02-12T02:12:01;-3.70;99.90
64226;DHT22;50545;56.064;26.178;2023-02-12T02:14:48;-3.70;99.90
64226;DHT22;50545;56.064;26.178;2023-02-12T02:17:31;-3.80;99.90
64226;DHT22;50545;56.064;26.178;2023-02-12T02:37:00;-3.80;99.90
64226;DHT22;50545;56.064;26.178;2023-02-12T02:39:46;-3.80;99.90
64226;DHT22;50545;56.064;26.178;2023-02-12T02:42:32;-3.80;99.90
64226;DHT22;50545;56.064;26.178;2023-02-12T02:47:43;-3.80;99.90
64226;DHT22;50545;56.064;26.178;2023-02-12T02:50:15;-3.80;99.90
64226;DHT22;50545;56.064;26.178;2023-02-12T02:52:58;-3.80;99.90
64226;DHT22;50545;56.064;26.178;2023-02-12T02:55:31;-3.80;99.90
64226;DHT22;50545;56.064;26.178;2023-02-12T02:58:13;-3.80;99.90
64226;DHT22;50545;56.064;26.178;2023-02-12T03:04:00;-3.80;99.90
64226;DHT22;50545;56.064;26.178;2023-02-12T03:09:18;-3.80;99.90
64226;DHT22;50545;56.064;26.178;2023-02-12T03:11:46;-3.90;99.90
64226;DHT22;50545;56.064;26.178;2023-02-12T03:14:30;-3.90;99.90
64226;DHT22;50545;56.064;26.178;2023-02-12T03:17:02;-3.90;99.90
64226;DHT22;50545;56.064;26.178;2023-02-12T03:19:51;-3.90;99.90
64226;DHT22;50545;56.064;26.178;2023-02-12T03:22:24;-3.90;99.90
64226;DHT22;50545;56.064;26.178;2023-02-12T03:24:57;-3.90;99.90
64226;DHT22;50545;56.064;26.178;2023-02-12T03:27:38;-3.90;99.90
64226;DHT22;50545;56.064;26.178;2023-02-12T03:30:07;-3.90;99.90
64226;DHT22;50545;56.064;26.178;2023-02-12T03:32:53;-4.00;99.90
64226;DHT22;50545;56.064;26.178;2023-02-12T03:35:34;-4.00;99.90
64226;DHT22;50545;56.064;26.178;2023-02-12T03:38:16;-4.00;99.90
64226;DHT22;50545;56.064;26.178;2023-02-12T03:40:54;-4.10;99.90
64226;DHT22;50545;56.064;26.178;2023-02-12T03:43:36;-4.10;99.90
64226;DHT22;50545;56.064;26.178;2023-02-12T03:49:20;-4.10;99.90
64226;DHT22;50545;56.064;26.178;2023-02-12T03:51:50;-4.10;99.90
64226;DHT22;50545;56.064;26.178;2023-02-12T03:54:19;-4.10;99.90
64226;DHT22;50545;56.064;26.178;2023-02-12T03:57:20;-4.10;99.90
64226;DHT22;50545;56.064;26.178;2023-02-12T03:59:49;-4.10;99.90
64226;DHT22;50545;56.064;26.178;2023-02-12T04:02:17;-4.10;99.90
64226;DHT22;50545;56.064;26.178;2023-02-12T04:04:46;-4.10;99.90
64226;DHT22;50545;56.064;26.178;2023-02-12T04:07:15;-4.10;99.90
64226;DHT22;50545;56.064;26.178;2023-02-12T04:09:42;-4.10;99.90
64226;DHT22;50545;56.064;26.178;2023-02-12T04:12:30;-4.10;99.90
64226;DHT22;50545;56.064;26.178;2023-02-12T04:15:39;-4.10;99.90
64226;DHT22;50545;56.064;26.178;2023-02-12T04:24:27;-4.00;99.90
64226;DHT22;50545;56.064;26.178;2023-02-12T04:30:15;-4.00;99.90
64226;DHT22;50545;56.064;26.178;2023-02-12T04:33:12;-4.00;99.90
64226;DHT22;50545;56.064;26.178;2023-02-12T04:38:35;-4.00;99.90
64226;DHT22;50545;56.064;26.178;2023-02-12T04:41:05;-4.00;99.90
64226;DHT22;50545;56.064;26.178;2023-02-12T04:43:35;-4.00;99.90
64226;DHT22;50545;56.064;26.178;2023-02-12T04:46:05;-4.00;99.90
64226;DHT22;50545;56.064;26.178;2023-02-12T04:48:34;-4.10;99.90
64226;DHT22;50545;56.064;26.178;2023-02-12T04:51:01;-4.00;99.90
64226;DHT22;50545;56.064;26.178;2023-02-12T04:53:29;-4.00;99.90
64226;DHT22;50545;56.064;26.178;2023-02-12T04:55:56;-4.00;99.90
64226;DHT22;50545;56.064;26.178;2023-02-12T04:58:23;-4.00;99.90
64226;DHT22;50545;56.064;26.178;2023-02-12T05:00:51;-4.00;99.90
64226;DHT22;50545;56.064;26.178;2023-02-12T05:03:18;-4.10;99.90
64226;DHT22;50545;56.064;26.178;2023-02-12T05:05:45;-4.10;99.90
64226;DHT22;50545;56.064;26.178;2023-02-12T05:08:12;-4.00;99.90
64226;DHT22;50545;56.064;26.178;2023-02-12T05:10:39;-4.10;99.90
64226;DHT22;50545;56.064;26.178;2023-02-12T05:13:07;-4.10;99.90
64226;DHT22;50545;56.064;26.178;2023-02-12T05:15:34;-4.20;99.90
64226;DHT22;50545;56.064;26.178;2023-02-12T05:18:01;-4.20;99.90
64226;DHT22;50545;56.064;26.178;2023-02-12T05:20:28;-4.20;99.90
64226;DHT22;50545;56.064;26.178;2023-02-12T05:22:55;-4.20;99.90
64226;DHT22;50545;56.064;26.178;2023-02-12T05:25:23;-4.20;99.90
64226;DHT22;50545;56.064;26.178;2023-02-12T05:27:50;-4.20;99.90
64226;DHT22;50545;56.064;26.178;2023-02-12T05:30:17;-4.20;99.90
64226;DHT22;50545;56.064;26.178;2023-02-12T05:32:44;-4.20;99.90
64226;DHT22;50545;56.064;26.178;2023-02-12T05:35:12;-4.20;99.90
64226;DHT22;50545;56.064;26.178;2023-02-12T05:37:39;-4.20;99.90
64226;DHT22;50545;56.064;26.178;2023-02-12T05:40:07;-4.20;99.90
64226;DHT22;50545;56.064;26.178;2023-02-12T05:42:34;-4.20;99.90
64226;DHT22;50545;56.064;26.178;2023-02-12T05:45:01;-4.20;99.90
64226;DHT22;50545;56.064;26.178;2023-02-12T05:47:29;-4.20;99.90
64226;DHT22;50545;56.064;26.178;2023-02-12T05:49:56;-4.30;99.90
64226;DHT22;50545;56.064;26.178;2023-02-12T05:52:23;-4.30;99.90
64226;DHT22;50545;56.064;26.178;2023-02-12T05:54:50;-4.30;99.90
64226;DHT22;50545;56.064;26.178;2023-02-12T05:57:18;-4.30;99.90
64226;DHT22;50545;56.064;26.178;2023-02-12T05:59:45;-4.30;99.90
64226;DHT22;50545;56.064;26.178;2023-02-12T06:02:12;-4.30;99.90
64226;DHT22;50545;56.064;26.178;2023-02-12T06:04:39;-4.30;99.90
64226;DHT22;50545;56.064;26.178;2023-02-12T06:07:06;-4.20;99.90
64226;DHT22;50545;56.064;26.178;2023-02-12T06:09:34;-4.20;99.90
64226;DHT22;50545;56.064;26.178;2023-02-12T06:12:03;-4.20;99.90
64226;DHT22;50545;56.064;26.178;2023-02-12T06:14:30;-4.20;99.90
64226;DHT22;50545;56.064;26.178;2023-02-12T06:16:57;-4.20;99.90
64226;DHT22;50545;56.064;26.178;2023-02-12T06:19:25;-4.10;99.90
64226;DHT22;50545;56.064;26.178;2023-02-12T06:21:52;-4.10;99.90
64226;DHT22;50545;56.064;26.178;2023-02-12T06:24:19;-4.10;99.90
64226;DHT22;50545;56.064;26.178;2023-02-12T06:26:49;-4.00;99.90
64226;DHT22;50545;56.064;26.178;2023-02-12T06:29:18;-3.90;99.90
64226;DHT22;50545;56.064;26.178;2023-02-12T06:31:46;-3.90;99.90
64226;DHT22;50545;56.064;26.178;2023-02-12T06:34:14;-3.90;99.90
64226;DHT22;50545;56.064;26.178;2023-02-12T06:36:45;-3.80;99.90
64226;DHT22;50545;56.064;26.178;2023-02-12T06:39:13;-3.80;99.90
64226;DHT22;50545;56.064;26.178;2023-02-12T06:41:41;-3.80;99.90
64226;DHT22;50545;56.064;26.178;2023-02-12T06:44:10;-3.70;99.90
64226;DHT22;50545;56.064;26.178;2023-02-12T06:46:37;-3.70;99.90
64226;DHT22;50545;56.064;26.178;2023-02-12T06:49:05;-3.60;99.90
64226;DHT22;50545;56.064;26.178;2023-02-12T06:51:32;-3.50;99.90
64226;DHT22;50545;56.064;26.178;2023-02-12T06:53:59;-3.50;99.90
64226;DHT22;50545;56.064;26.178;2023-02-12T06:56:26;-3.40;99.90
64226;DHT22;50545;56.064;26.178;2023-02-12T06:58:56;-3.30;99.90
64226;DHT22;50545;56.064;26.178;2023-02-12T07:01:26;-3.30;99.90
64226;DHT22;50545;56.064;26.178;2023-02-12T07:03:59;-3.30;99.90
64226;DHT22;50545;56.064;26.178;2023-02-12T07:06:29;-3.20;99.90
64226;DHT22;50545;56.064;26.178;2023-02-12T07:08:57;-3.10;99.90
64226;DHT22;50545;56.064;26.178;2023-02-12T07:11:26;-3.10;99.90
64226;DHT22;50545;56.064;26.178;2023-02-12T07:13:53;-3.00;99.90
64226;DHT22;50545;56.064;26.178;2023-02-12T07:16:21;-2.90;99.90
64226;DHT22;50545;56.064;26.178;2023-02-12T07:18:48;-2.80;99.90
64226;DHT22;50545;56.064;26.178;2023-02-12T07:21:16;-2.80;99.90
64226;DHT22;50545;56.064;26.178;2023-02-12T07:23:51;-2.70;99.90
64226;DHT22;50545;56.064;26.178;2023-02-12T07:26:19;-2.70;99.90
64226;DHT22;50545;56.064;26.178;2023-02-12T07:28:47;-2.60;99.90
64226;DHT22;50545;56.064;26.178;2023-02-12T07:31:20;-2.60;99.90
64226;DHT22;50545;56.064;26.178;2023-02-12T07:33:51;-2.50;99.90
64226;DHT22;50545;56.064;26.178;2023-02-12T07:36:19;-2.50;99.90
64226;DHT22;50545;56.064;26.178;2023-02-12T07:38:46;-2.40;99.90
64226;DHT22;50545;56.064;26.178;2023-02-12T07:41:16;-2.40;99.90
64226;DHT22;50545;56.064;26.178;2023-02-12T07:43:46;-2.30;99.90
64226;DHT22;50545;56.064;26.178;2023-02-12T07:46:19;-2.30;99.90
64226;DHT22;50545;56.064;26.178;2023-02-12T07:48:47;-2.20;99.90
64226;DHT22;50545;56.064;26.178;2023-02-12T07:51:16;-2.10;99.90
64226;DHT22;50545;56.064;26.178;2023-02-12T07:53:47;-2.10;99.90
64226;DHT22;50545;56.064;26.178;2023-02-12T07:56:20;-2.00;99.90
64226;DHT22;50545;56.064;26.178;2023-02-12T07:58:50;-2.00;99.90
64226;DHT22;50545;56.064;26.178;2023-02-12T08:01:23;-1.90;99.90
64226;DHT22;50545;56.064;26.178;2023-02-12T08:03:50;-1.80;99.90
64226;DHT22;50545;56.064;26.178;2023-02-12T08:08:45;-1.70;99.90
64226;DHT22;50545;56.064;26.178;2023-02-12T08:11:14;-1.60;99.90
64226;DHT22;50545;56.064;26.178;2023-02-12T08:13:41;-1.60;99.90
64226;DHT22;50545;56.064;26.178;2023-02-12T08:16:11;-1.50;99.90
64226;DHT22;50545;56.064;26.178;2023-02-12T08:18:39;-1.50;99.90
64226;DHT22;50545;56.064;26.178;2023-02-12T08:21:12;-1.50;99.90
64226;DHT22;50545;56.064;26.178;2023-02-12T08:23:39;-1.40;99.90
64226;DHT22;50545;56.064;26.178;2023-02-12T08:28:46;-1.40;99.90
64226;DHT22;50545;56.064;26.178;2023-02-12T08:31:20;-1.40;99.90
64226;DHT22;50545;56.064;26.178;2023-02-12T08:33:49;-1.30;99.90
64226;DHT22;50545;56.064;26.178;2023-02-12T08:36:20;-1.30;99.90
64226;DHT22;50545;56.064;26.178;2023-02-12T08:38:48;-1.30;99.90
64226;DHT22;50545;56.064;26.178;2023-02-12T08:41:21;-1.30;99.90
64226;DHT22;50545;56.064;26.178;2023-02-12T08:43:51;-1.20;99.90
64226;DHT22;50545;56.064;26.178;2023-02-12T08:46:23;-1.20;99.90
64226;DHT22;50545;56.064;26.178;2023-02-12T08:48:56;-1.10;99.90
64226;DHT22;50545;56.064;26.178;2023-02-12T08:51:26;-1.10;99.90
64226;DHT22;50545;56.064;26.178;2023-02-12T08:53:56;-1.10;99.90
64226;DHT22;50545;56.064;26.178;2023-02-12T08:56:24;-1.00;99.90
64226;DHT22;50545;56.064;26.178;2023-02-12T08:58:51;-1.00;99.90
64226;DHT22;50545;56.064;26.178;2023-02-12T09:01:21;-0.90;99.90
64226;DHT22;50545;56.064;26.178;2023-02-12T09:03:50;-0.90;99.90
64226;DHT22;50545;56.064;26.178;2023-02-12T09:06:18;-0.80;99.90
64226;DHT22;50545;56.064;26.178;2023-02-12T09:08:47;-0.80;99.90
64226;DHT22;50545;56.064;26.178;2023-02-12T09:11:17;-0.80;99.90
64226;DHT22;50545;56.064;26.178;2023-02-12T09:13:45;-0.80;99.90
64226;DHT22;50545;56.064;26.178;2023-02-12T09:16:13;-0.80;99.90
64226;DHT22;50545;56.064;26.178;2023-02-12T09:18:41;-0.70;99.90
64226;DHT22;50545;56.064;26.178;2023-02-12T09:21:11;-0.80;99.90
64226;DHT22;50545;56.064;26.178;2023-02-12T09:23:39;-0.80;99.90
64226;DHT22;50545;56.064;26.178;2023-02-12T09:26:09;-0.80;99.90
64226;DHT22;50545;56.064;26.178;2023-02-12T09:28:37;-0.80;99.90
64226;DHT22;50545;56.064;26.178;2023-02-12T09:31:14;-0.90;99.90
64226;DHT22;50545;56.064;26.178;2023-02-12T09:33:42;-0.90;99.90
64226;DHT22;50545;56.064;26.178;2023-02-12T09:36:13;-0.90;99.90
64226;DHT22;50545;56.064;26.178;2023-02-12T09:38:40;-0.80;99.90
64226;DHT22;50545;56.064;26.178;2023-02-12T09:44:19;-0.80;99.90
64226;DHT22;50545;56.064;26.178;2023-02-12T09:52:41;-0.80;99.90
64226;DHT22;50545;56.064;26.178;2023-02-12T09:55:14;-0.80;99.90
64226;DHT22;50545;56.064;26.178;2023-02-12T09:57:42;-0.70;99.90
64226;DHT22;50545;56.064;26.178;2023-02-12T10:00:29;-0.70;99.90
64226;DHT22;50545;56.064;26.178;2023-02-12T10:03:02;-0.70;99.90
64226;DHT22;50545;56.064;26.178;2023-02-12T10:05:40;-0.60;99.90
64226;DHT22;50545;56.064;26.178;2023-02-12T10:10:54;-0.50;99.90
64226;DHT22;50545;56.064;26.178;2023-02-12T10:13:41;-0.50;99.90
64226;DHT22;50545;56.064;26.178;2023-02-12T10:27:54;-0.10;99.90
64226;DHT22;50545;56.064;26.178;2023-02-12T10:30:29;0.00;99.90
64226;DHT22;50545;56.064;26.178;2023-02-12T10:33:08;0.00;99.90
64226;DHT22;50545;56.064;26.178;2023-02-12T10:35:44;-0.10;99.90
64226;DHT22;50545;56.064;26.178;2023-02-12T10:38:29;-0.20;99.90
64226;DHT22;50545;56.064;26.178;2023-02-12T10:40:58;-0.20;99.90
64226;DHT22;50545;56.064;26.178;2023-02-12T10:43:28;-0.20;99.90
64226;DHT22;50545;56.064;26.178;2023-02-12T10:45:55;0.00;99.90
64226;DHT22;50545;56.064;26.178;2023-02-12T10:48:29;0.10;99.90
64226;DHT22;50545;56.064;26.178;2023-02-12T10:51:24;0.20;99.90
64226;DHT22;50545;56.064;26.178;2023-02-12T10:53:56;0.30;99.90
64226;DHT22;50545;56.064;26.178;2023-02-12T10:56:25;0.30;99.90
64226;DHT22;50545;56.064;26.178;2023-02-12T10:58:59;0.30;99.90
64226;DHT22;50545;56.064;26.178;2023-02-12T11:03:59;0.20;99.90
64226;DHT22;50545;56.064;26.178;2023-02-12T11:06:28;0.20;99.90
64226;DHT22;50545;56.064;26.178;2023-02-12T11:08:56;0.20;99.90
64226;DHT22;50545;56.064;26.178;2023-02-12T11:11:29;0.30;99.90
64226;DHT22;50545;56.064;26.178;2023-02-12T11:14:19;0.30;99.90
64226;DHT22;50545;56.064;26.178;2023-02-12T11:16:55;0.30;99.90
64226;DHT22;50545;56.064;26.178;2023-02-12T11:19:25;0.40;99.90
64226;DHT22;50545;56.064;26.178;2023-02-12T11:22:13;0.40;99.90
64226;DHT22;50545;56.064;26.178;2023-02-12T11:24:45;0.50;99.90
64226;DHT22;50545;56.064;26.178;2023-02-12T11:29:43;0.70;99.90
64226;DHT22;50545;56.064;26.178;2023-02-12T11:32:19;0.80;99.90
64226;DHT22;50545;56.064;26.178;2023-02-12T11:37:40;1.00;99.90
64226;DHT22;50545;56.064;26.178;2023-02-12T11:40:17;1.00;99.90
64226;DHT22;50545;56.064;26.178;2023-02-12T11:42:50;1.00;99.90
64226;DHT22;50545;56.064;26.178;2023-02-12T11:45:20;1.10;99.90
64226;DHT22;50545;56.064;26.178;2023-02-12T11:47:48;1.00;99.90
64226;DHT22;50545;56.064;26.178;2023-02-12T11:50:30;0.80;99.90
64226;DHT22;50545;56.064;26.178;2023-02-12T11:53:06;0.90;99.90
64226;DHT22;50545;56.064;26.178;2023-02-12T11:55:38;1.00;99.90
64226;DHT22;50545;56.064;26.178;2023-02-12T11:58:13;1.00;99.90
64226;DHT22;50545;56.064;26.178;2023-02-12T12:03:35;1.00;99.90
64226;DHT22;50545;56.064;26.178;2023-02-12T12:06:37;0.90;99.90
64226;DHT22;50545;56.064;26.178;2023-02-12T12:09:09;1.00;99.90
64226;DHT22;50545;56.064;26.178;2023-02-12T12:14:27;1.10;99.90
64226;DHT22;50545;56.064;26.178;2023-02-12T12:17:03;1.20;99.90
64226;DHT22;50545;56.064;26.178;2023-02-12T12:20:04;1.10;99.90
64226;DHT22;50545;56.064;26.178;2023-02-12T12:23:05;1.10;99.90
64226;DHT22;50545;56.064;26.178;2023-02-12T12:28:13;1.10;99.90
64226;DHT22;50545;56.064;26.178;2023-02-12T12:33:36;1.20;99.90
64226;DHT22;50545;56.064;26.178;2023-02-12T12:44:55;1.00;99.90
64226;DHT22;50545;56.064;26.178;2023-02-12T12:52:41;1.10;99.90
64226;DHT22;50545;56.064;26.178;2023-02-12T13:17:12;0.90;99.90
64226;DHT22;50545;56.064;26.178;2023-02-12T13:19:43;0.80;99.90
64226;DHT22;50545;56.064;26.178;2023-02-12T13:22:23;0.80;99.90
64226;DHT22;50545;56.064;26.178;2023-02-12T13:27:25;0.70;99.90
64226;DHT22;50545;56.064;26.178;2023-02-12T13:30:06;0.70;99.90
64226;DHT22;50545;56.064;26.178;2023-02-12T13:32:59;0.70;99.90
64226;DHT22;50545;56.064;26.178;2023-02-12T13:35:29;0.60;99.90
64226;DHT22;50545;56.064;26.178;2023-02-12T13:37:58;0.60;99.90
64226;DHT22;50545;56.064;26.178;2023-02-12T13:40:28;0.60;99.90
64226;DHT22;50545;56.064;26.178;2023-02-12T13:43:13;0.60;99.90
64226;DHT22;50545;56.064;26.178;2023-02-12T13:46:01;0.60;99.90
64226;DHT22;50545;56.064;26.178;2023-02-12T13:56:36;0.70;99.90
64226;DHT22;50545;56.064;26.178;2023-02-12T14:04:35;0.80;99.90
64226;DHT22;50545;56.064;26.178;2023-02-12T14:07:11;0.80;99.90
64226;DHT22;50545;56.064;26.178;2023-02-12T14:20:19;0.80;99.90
64226;DHT22;50545;56.064;26.178;2023-02-12T14:25:37;0.70;99.90
64226;DHT22;50545;56.064;26.178;2023-02-12T14:28:24;0.70;99.90
64226;DHT22;50545;56.064;26.178;2023-02-12T14:34:36;0.70;99.90
64226;DHT22;50545;56.064;26.178;2023-02-12T14:36:45;0.70;99.90
64226;DHT22;50545;56.064;26.178;2023-02-12T14:41:53;0.60;99.90
64226;DHT22;50545;56.064;26.178;2023-02-12T14:46:57;0.50;99.90
64226;DHT22;50545;56.064;26.178;2023-02-12T14:49:25;0.50;99.90
64226;DHT22;50545;56.064;26.178;2023-02-12T14:52:02;0.40;99.90
64226;DHT22;50545;56.064;26.178;2023-02-12T14:54:50;0.40;99.90
64226;DHT22;50545;56.064;26.178;2023-02-12T14:57:38;0.40;99.90
64226;DHT22;50545;56.064;26.178;2023-02-12T15:00:29;0.40;99.90
64226;DHT22;50545;56.064;26.178;2023-02-12T15:08:33;0.30;99.90
64226;DHT22;50545;56.064;26.178;2023-02-12T15:13:58;0.30;99.90
64226;DHT22;50545;56.064;26.178;2023-02-12T15:22:01;0.30;99.90
64226;DHT22;50545;56.064;26.178;2023-02-12T15:24:28;0.30;99.90
64226;DHT22;50545;56.064;26.178;2023-02-12T15:26:57;0.30;99.90
64226;DHT22;50545;56.064;26.178;2023-02-12T15:29:29;0.30;99.90
64226;DHT22;50545;56.064;26.178;2023-02-12T15:32:00;0.30;99.90
64226;DHT22;50545;56.064;26.178;2023-02-12T15:34:31;0.30;99.90
64226;DHT22;50545;56.064;26.178;2023-02-12T15:37:01;0.30;99.90
64226;DHT22;50545;56.064;26.178;2023-02-12T15:39:40;0.30;99.90
64226;DHT22;50545;56.064;26.178;2023-02-12T15:44:51;0.20;99.90
64226;DHT22;50545;56.064;26.178;2023-02-12T15:47:28;0.20;99.90
64226;DHT22;50545;56.064;26.178;2023-02-12T15:49:58;0.30;99.90
64226;DHT22;50545;56.064;26.178;2023-02-12T15:52:38;0.30;99.90
64226;DHT22;50545;56.064;26.178;2023-02-12T15:55:14;0.30;99.90
64226;DHT22;50545;56.064;26.178;2023-02-12T15:57:52;0.30;99.90
64226;DHT22;50545;56.064;26.178;2023-02-12T16:00:27;0.20;99.90
64226;DHT22;50545;56.064;26.178;2023-02-12T16:02:55;0.20;99.90
64226;DHT22;50545;56.064;26.178;2023-02-12T16:05:22;0.20;99.90
64226;DHT22;50545;56.064;26.178;2023-02-12T16:07:50;0.30;99.90
64226;DHT22;50545;56.064;26.178;2023-02-12T16:10:18;0.30;99.90
64226;DHT22;50545;56.064;26.178;2023-02-12T16:12:47;0.30;99.90
64226;DHT22;50545;56.064;26.178;2023-02-12T16:15:29;0.20;99.90
64226;DHT22;50545;56.064;26.178;2023-02-12T16:17:58;0.20;99.90
64226;DHT22;50545;56.064;26.178;2023-02-12T16:20:30;0.30;99.90
64226;DHT22;50545;56.064;26.178;2023-02-12T16:22:58;0.30;99.90
64226;DHT22;50545;56.064;26.178;2023-02-12T16:25:31;0.30;99.90
64226;DHT22;50545;56.064;26.178;2023-02-12T16:28:06;0.30;99.90
64226;DHT22;50545;56.064;26.178;2023-02-12T16:30:35;0.30;99.90
64226;DHT22;50545;56.064;26.178;2023-02-12T16:36:07;0.30;99.90
64226;DHT22;50545;56.064;26.178;2023-02-12T16:46:33;0.40;99.90
64226;DHT22;50545;56.064;26.178;2023-02-12T16:49:01;0.40;99.90
64226;DHT22;50545;56.064;26.178;2023-02-12T16:51:35;0.40;99.90
64226;DHT22;50545;56.064;26.178;2023-02-12T16:54:04;0.40;99.90
64226;DHT22;50545;56.064;26.178;2023-02-12T16:56:50;0.50;99.90
64226;DHT22;50545;56.064;26.178;2023-02-12T16:59:17;0.50;99.90
64226;DHT22;50545;56.064;26.178;2023-02-12T17:01:57;0.50;99.90
64226;DHT22;50545;56.064;26.178;2023-02-12T17:04:25;0.50;99.90
64226;DHT22;50545;56.064;26.178;2023-02-12T17:06:52;0.50;99.90
64226;DHT22;50545;56.064;26.178;2023-02-12T17:09:20;0.60;99.90
64226;DHT22;50545;56.064;26.178;2023-02-12T17:11:47;0.60;99.90
64226;DHT22;50545;56.064;26.178;2023-02-12T17:14:19;0.60;99.90
64226;DHT22;50545;56.064;26.178;2023-02-12T17:16:46;0.60;99.90
64226;DHT22;50545;56.064;26.178;2023-02-12T17:19:14;0.60;99.90
64226;DHT22;50545;56.064;26.178;2023-02-12T17:21:43;0.60;99.90
64226;DHT22;50545;56.064;26.178;2023-02-12T17:24:21;0.60;99.90
64226;DHT22;50545;56.064;26.178;2023-02-12T17:26:50;0.60;99.90
64226;DHT22;50545;56.064;26.178;2023-02-12T17:29:19;0.60;99.90
64226;DHT22;50545;56.064;26.178;2023-02-12T17:31:47;0.60;99.90
64226;DHT22;50545;56.064;26.178;2023-02-12T17:34:15;0.60;99.90
64226;DHT22;50545;56.064;26.178;2023-02-12T17:36:42;0.60;99.90
64226;DHT22;50545;56.064;26.178;2023-02-12T17:39:11;0.70;99.90
64226;DHT22;50545;56.064;26.178;2023-02-12T17:41:39;0.70;99.90
64226;DHT22;50545;56.064;26.178;2023-02-12T17:44:07;0.70;99.90
64226;DHT22;50545;56.064;26.178;2023-02-12T17:46:36;0.70;99.90
64226;DHT22;50545;56.064;26.178;2023-02-12T17:49:04;0.80;99.90
64226;DHT22;50545;56.064;26.178;2023-02-12T17:51:31;0.80;99.90
64226;DHT22;50545;56.064;26.178;2023-02-12T17:53:58;0.80;99.90
64226;DHT22;50545;56.064;26.178;2023-02-12T17:56:26;0.80;99.90
64226;DHT22;50545;56.064;26.178;2023-02-12T17:58:53;0.90;99.90
64226;DHT22;50545;56.064;26.178;2023-02-12T18:01:22;0.80;99.90
64226;DHT22;50545;56.064;26.178;2023-02-12T18:03:49;0.80;99.90
64226;DHT22;50545;56.064;26.178;2023-02-12T18:06:21;0.80;99.90
64226;DHT22;50545;56.064;26.178;2023-02-12T18:08:48;0.80;99.90
64226;DHT22;50545;56.064;26.178;2023-02-12T18:11:15;0.80;99.90
64226;DHT22;50545;56.064;26.178;2023-02-12T18:13:45;0.80;99.90
64226;DHT22;50545;56.064;26.178;2023-02-12T18:16:12;0.80;99.90
64226;DHT22;50545;56.064;26.178;2023-02-12T18:18:40;0.80;99.90
64226;DHT22;50545;56.064;26.178;2023-02-12T18:21:10;0.80;99.90
64226;DHT22;50545;56.064;26.178;2023-02-12T18:23:37;0.80;99.90
64226;DHT22;50545;56.064;26.178;2023-02-12T18:26:15;0.80;99.90
64226;DHT22;50545;56.064;26.178;2023-02-12T18:28:43;0.80;99.90
64226;DHT22;50545;56.064;26.178;2023-02-12T18:31:11;0.80;99.90
64226;DHT22;50545;56.064;26.178;2023-02-12T18:33:39;0.80;99.90
64226;DHT22;50545;56.064;26.178;2023-02-12T18:36:13;0.90;99.90
64226;DHT22;50545;56.064;26.178;2023-02-12T18:38:41;0.90;99.90
64226;DHT22;50545;56.064;26.178;2023-02-12T18:41:15;0.90;99.90
64226;DHT22;50545;56.064;26.178;2023-02-12T18:43:43;0.90;99.90
64226;DHT22;50545;56.064;26.178;2023-02-12T18:46:13;0.90;99.90
64226;DHT22;50545;56.064;26.178;2023-02-12T18:48:42;0.90;99.90
64226;DHT22;50545;56.064;26.178;2023-02-12T18:51:13;0.90;99.90
64226;DHT22;50545;56.064;26.178;2023-02-12T18:53:41;0.90;99.90
64226;DHT22;50545;56.064;26.178;2023-02-12T18:56:10;0.90;99.90
64226;DHT22;50545;56.064;26.178;2023-02-12T18:58:38;0.90;99.90